Time;durP1;ratioP1;P1;durP2;ratioP2;P2;SDS_P1;SDS_P2;PMS_P1;PMS_P2;Temp;Humidity;BMP_temperature;BMP_pressure;BME280_temperature;BME280_humidity;BME280_pressure;Samples;Min_cycle;Max_cycle;Signal;HPM_P1;HPM_P2
2024/02/06 00:00:58;;;;;;;17.73;9.07;;;;;;;2.43;100.00;98591.13;5078259;28;20678;-78
2024/02/06 00:03:25;;;;;;;12.70;7.73;;;;;;;2.47;100.00;98602.34;5078527;28;20205;-78
2024/02/06 00:05:52;;;;;;;11.77;7.00;;;;;;;2.52;100.00;98593.47;5078536;28;20205;-78
2024/02/06 00:08:18;;;;;;;16.23;8.37;;;;;;;2.50;100.00;98587.44;5077420;28;20237;-78
2024/02/06 00:10:45;;;;;;;12.27;8.33;;;;;;;2.55;100.00;98590.78;5076746;28;20554;-78
2024/02/06 00:13:11;;;;;;;10.80;7.47;;;;;;;2.52;100.00;98592.63;5077252;28;20595;-78
2024/02/06 00:15:38;;;;;;;13.33;7.40;;;;;;;2.50;100.00;98586.59;5077647;28;20210;-78
2024/02/06 00:18:05;;;;;;;14.40;8.40;;;;;;;2.52;100.00;98588.25;5076799;28;20228;-78
2024/02/06 00:20:32;;;;;;;13.40;8.30;;;;;;;2.58;100.00;98585.44;5076426;28;20318;-78
2024/02/06 00:22:59;;;;;;;12.40;8.63;;;;;;;2.69;100.00;98582.53;5076917;28;20582;-78
2024/02/06 00:25:25;;;;;;;12.73;8.20;;;;;;;2.74;100.00;98588.44;5077845;28;20281;-78
2024/02/06 00:27:52;;;;;;;17.23;9.23;;;;;;;2.81;100.00;98585.59;5077332;28;20202;-78
2024/02/06 00:30:19;;;;;;;17.37;9.10;;;;;;;2.91;100.00;98594.00;5077392;28;20243;-78
2024/02/06 00:32:45;;;;;;;15.13;9.20;;;;;;;2.95;100.00;98596.44;5077790;28;20229;-78
2024/02/06 00:35:12;;;;;;;14.03;9.40;;;;;;;3.02;100.00;98608.44;5077119;28;20267;-78
2024/02/06 00:37:40;;;;;;;14.53;9.10;;;;;;;3.13;100.00;98597.63;5076670;28;20762;-78
2024/02/06 00:40:08;;;;;;;15.47;9.70;;;;;;;3.15;100.00;98601.91;5077690;28;20217;-78
2024/02/06 00:42:34;;;;;;;15.70;8.60;;;;;;;3.17;100.00;98600.09;5077217;28;20264;-78
2024/02/06 00:45:02;;;;;;;15.00;9.67;;;;;;;3.22;100.00;98597.31;5077407;28;20576;-78
2024/02/06 00:47:28;;;;;;;17.60;10.00;;;;;;;3.21;100.00;98593.00;5077392;28;20252;-78
2024/02/06 00:49:55;;;;;;;14.97;8.77;;;;;;;3.19;100.00;98595.66;5077327;28;20206;-78
2024/02/06 00:52:21;;;;;;;16.73;8.90;;;;;;;3.22;100.00;98595.56;5077443;28;20275;-78
2024/02/06 00:54:49;;;;;;;13.10;8.50;;;;;;;3.30;100.00;98603.16;5076881;28;20203;-78
2024/02/06 00:57:16;;;;;;;15.53;9.03;;;;;;;3.41;100.00;98601.03;5077626;28;20265;-78
2024/02/06 00:59:43;;;;;;;13.33;8.40;;;;;;;3.48;100.00;98592.94;5077681;28;20658;-78
2024/02/06 01:02:09;;;;;;;13.50;8.37;;;;;;;3.44;100.00;98596.59;5077823;28;20225;-78
2024/02/06 01:04:36;;;;;;;12.83;7.93;;;;;;;3.49;100.00;98599.88;5077778;28;20212;-78
2024/02/06 01:07:02;;;;;;;16.87;9.27;;;;;;;3.56;100.00;98596.13;5077200;28;20576;-78
2024/02/06 01:09:29;;;;;;;13.17;8.30;;;;;;;3.64;100.00;98596.75;5078098;28;20208;-78
2024/02/06 01:11:57;;;;;;;14.17;8.20;;;;;;;3.69;100.00;98589.59;5077477;28;20317;-78
2024/02/06 01:14:23;;;;;;;13.90;8.00;;;;;;;3.78;100.00;98591.88;5077264;28;20212;-78
2024/02/06 01:16:50;;;;;;;13.37;7.50;;;;;;;3.76;100.00;98592.84;5077093;28;20214;-78
2024/02/06 01:19:16;;;;;;;11.17;7.53;;;;;;;3.75;100.00;98589.41;5077190;28;20232;-78
2024/02/06 01:21:43;;;;;;;12.47;7.23;;;;;;;3.82;100.00;98601.34;5077599;28;20234;-78
2024/02/06 01:24:09;;;;;;;13.27;7.40;;;;;;;3.93;100.00;98600.97;5076616;28;20206;-78
2024/02/06 01:26:36;;;;;;;14.60;7.43;;;;;;;3.98;100.00;98599.88;5077026;28;20219;-78
2024/02/06 01:29:03;;;;;;;13.77;7.10;;;;;;;4.08;100.00;98598.66;5076174;28;20209;-78
2024/02/06 01:31:30;;;;;;;10.33;6.63;;;;;;;4.04;100.00;98596.19;5076573;28;20230;-78
2024/02/06 01:33:57;;;;;;;14.93;7.57;;;;;;;4.09;100.00;98597.72;5075105;28;20211;-78
2024/02/06 01:36:23;;;;;;;12.97;6.73;;;;;;;4.21;100.00;98596.44;5076145;28;20213;-78
2024/02/06 01:38:50;;;;;;;10.90;6.73;;;;;;;4.24;100.00;98596.31;5075410;28;20227;-78
2024/02/06 01:41:16;;;;;;;13.43;6.30;;;;;;;4.28;100.00;98598.75;5076648;28;20240;-78
2024/02/06 01:43:43;;;;;;;9.53;5.90;;;;;;;4.32;100.00;98589.91;5074618;28;20274;-78
2024/02/06 01:46:11;;;;;;;10.40;6.23;;;;;;;4.26;100.00;98594.50;5075993;28;20218;-78
2024/02/06 01:48:38;;;;;;;12.40;7.47;;;;;;;4.28;100.00;98593.53;5071988;28;20212;-78
2024/02/06 01:51:07;;;;;;;14.43;6.87;;;;;;;4.35;100.00;98602.03;5072383;28;20269;-78
2024/02/06 01:53:33;;;;;;;13.00;6.40;;;;;;;4.34;100.00;98593.31;5072423;28;20592;-78
2024/02/06 01:56:00;;;;;;;11.37;5.77;;;;;;;4.40;100.00;98595.69;5072380;28;20210;-78
2024/02/06 01:58:27;;;;;;;9.13;6.00;;;;;;;4.50;100.00;98599.69;5071816;28;20233;-78
2024/02/06 02:00:54;;;;;;;10.20;5.90;;;;;;;4.48;100.00;98596.28;5072709;28;20582;-78
2024/02/06 02:03:23;;;;;;;8.70;6.17;;;;;;;4.54;100.00;98597.81;5072584;28;20233;-77
2024/02/06 02:05:50;;;;;;;14.03;6.60;;;;;;;4.50;100.00;98599.69;5072746;28;20673;-78
2024/02/06 02:08:18;;;;;;;13.90;6.47;;;;;;;4.56;100.00;98590.72;5072113;28;20250;-79
2024/02/06 02:10:45;;;;;;;13.87;6.63;;;;;;;4.51;100.00;98588.28;5072286;28;20211;-77
2024/02/06 02:13:11;;;;;;;11.73;6.03;;;;;;;4.51;100.00;98580.44;5072011;28;20227;-77
2024/02/06 02:15:38;;;;;;;11.83;6.20;;;;;;;4.52;100.00;98582.16;5071964;28;20584;-78
2024/02/06 02:18:07;;;;;;;8.23;5.60;;;;;;;4.47;100.00;98593.72;5071414;28;20656;-78
2024/02/06 02:20:35;;;;;;;11.87;6.20;;;;;;;4.45;100.00;98580.69;5071985;28;20260;-78
2024/02/06 02:23:02;;;;;;;10.03;5.77;;;;;;;4.57;100.00;98585.44;5071791;28;20234;-78
2024/02/06 02:25:29;;;;;;;11.57;5.67;;;;;;;4.58;100.00;98592.38;5071719;28;20216;-78
2024/02/06 02:27:56;;;;;;;9.90;6.13;;;;;;;4.61;100.00;98581.81;5071442;28;20316;-78
2024/02/06 02:30:23;;;;;;;8.70;5.23;;;;;;;4.61;100.00;98581.81;5071791;28;20592;-78
2024/02/06 02:32:50;;;;;;;9.70;6.00;;;;;;;4.59;100.00;98581.00;5072329;28;20669;-78
2024/02/06 02:35:16;;;;;;;12.37;6.10;;;;;;;4.65;100.00;98579.94;5073757;28;20214;-77
2024/02/06 02:37:43;;;;;;;9.87;6.23;;;;;;;4.71;100.00;98574.44;5076217;28;20207;-78
2024/02/06 02:40:11;;;;;;;13.00;5.97;;;;;;;4.65;100.00;98577.31;5076000;28;20230;-78
2024/02/06 02:42:38;;;;;;;9.50;6.10;;;;;;;4.65;100.00;98578.13;5076051;28;20227;-78
2024/02/06 02:45:05;;;;;;;10.03;5.87;;;;;;;4.64;100.00;98575.59;5075891;28;20630;-78
2024/02/06 02:47:32;;;;;;;8.43;5.53;;;;;;;4.64;100.00;98576.44;5075307;28;20203;-78
2024/02/06 02:49:58;;;;;;;10.87;5.83;;;;;;;4.55;100.00;98581.19;5076194;28;20211;-80
2024/02/06 02:52:25;;;;;;;11.70;6.03;;;;;;;4.41;100.00;98581.69;5075803;28;20602;-79
2024/02/06 02:54:51;;;;;;;9.60;5.80;;;;;;;4.37;100.00;98579.25;5075864;28;20217;-79
2024/02/06 02:57:19;;;;;;;12.03;5.80;;;;;;;4.32;100.00;98584.66;5074948;28;20214;-79
2024/02/06 02:59:46;;;;;;;13.83;6.37;;;;;;;4.23;100.00;98587.59;5075423;28;20241;-77
2024/02/06 03:02:12;;;;;;;10.80;5.23;;;;;;;4.24;100.00;98578.88;5076171;28;20232;-78
2024/02/06 03:04:39;;;;;;;11.33;6.00;;;;;;;4.16;100.00;98578.28;5075913;28;20214;-78
2024/02/06 03:07:05;;;;;;;12.93;6.47;;;;;;;4.11;100.00;98585.47;5075951;28;20590;-78
2024/02/06 03:09:31;;;;;;;11.43;6.30;;;;;;;4.13;100.00;98573.19;5075922;28;20203;-77
2024/02/06 03:11:58;;;;;;;12.37;5.50;;;;;;;4.06;100.00;98570.84;5075586;28;20240;-77
2024/02/06 03:14:26;;;;;;;12.83;6.47;;;;;;;4.04;100.00;98573.50;5075926;28;20209;-77
2024/02/06 03:16:52;;;;;;;11.23;5.63;;;;;;;4.06;100.00;98566.47;5074962;28;20219;-77
2024/02/06 03:19:19;;;;;;;12.33;5.77;;;;;;;4.05;100.00;98570.00;5075467;28;20748;-77
2024/02/06 03:21:46;;;;;;;10.00;5.67;;;;;;;4.00;100.00;98563.22;5075687;28;20237;-77
2024/02/06 03:24:13;;;;;;;12.17;6.43;;;;;;;3.99;100.00;98559.75;5075121;28;20210;-77
2024/02/06 03:26:39;;;;;;;12.60;7.30;;;;;;;3.97;100.00;98561.56;5075869;28;20217;-79
2024/02/06 03:29:06;;;;;;;11.53;6.47;;;;;;;3.96;100.00;98577.28;5074075;28;20220;-76
2024/02/06 03:31:34;;;;;;;12.60;7.20;;;;;;;4.03;100.00;98570.97;5075322;28;20231;-78
2024/02/06 03:34:00;;;;;;;12.23;5.80;;;;;;;4.03;100.00;98570.97;5075670;28;20218;-77
2024/02/06 03:36:27;;;;;;;11.80;6.50;;;;;;;4.10;100.00;98578.50;5075479;28;20583;-77
2024/02/06 03:38:53;;;;;;;12.37;6.40;;;;;;;4.04;100.00;98583.97;5074613;28;20354;-77
2024/02/06 03:41:19;;;;;;;10.37;6.17;;;;;;;4.07;100.00;98581.25;5075429;28;20230;-77
2024/02/06 03:43:46;;;;;;;9.90;6.07;;;;;;;4.14;100.00;98587.97;5075419;28;20211;-77
2024/02/06 03:46:12;;;;;;;10.23;5.97;;;;;;;4.14;100.00;98587.09;5074573;28;20674;-77
2024/02/06 03:48:40;;;;;;;11.27;6.50;;;;;;;4.08;100.00;98582.94;5074596;28;20201;-77
2024/02/06 03:51:07;;;;;;;11.57;6.57;;;;;;;4.12;100.00;98587.19;5075333;28;20225;-77
2024/02/06 03:53:33;;;;;;;13.70;6.83;;;;;;;4.12;100.00;98596.78;5075007;28;20590;-77
2024/02/06 03:56:00;;;;;;;11.53;6.50;;;;;;;4.11;100.00;98589.84;5074785;28;20216;-77
2024/02/06 03:58:26;;;;;;;11.77;6.50;;;;;;;4.02;100.00;98591.03;5074333;28;20234;-77
2024/02/06 04:00:53;;;;;;;11.77;6.53;;;;;;;4.01;100.00;98597.16;5075074;28;20210;-77
2024/02/06 04:03:19;;;;;;;11.70;6.20;;;;;;;4.12;100.00;98591.53;5074809;28;20237;-77
2024/02/06 04:05:47;;;;;;;13.50;6.93;;;;;;;4.26;100.00;98597.97;5074582;28;20216;-77
2024/02/06 04:08:14;;;;;;;9.83;5.87;;;;;;;4.33;100.00;98591.59;5074458;28;20214;-77
2024/02/06 04:10:40;;;;;;;12.40;6.47;;;;;;;4.37;100.00;98593.22;5074912;28;20215;-77
2024/02/06 04:13:08;;;;;;;11.73;6.40;;;;;;;4.45;100.00;98591.16;5074053;28;20241;-79
2024/02/06 04:15:34;;;;;;;13.40;6.80;;;;;;;4.48;100.00;98591.03;5073928;28;20243;-79
2024/02/06 04:18:03;;;;;;;12.40;6.63;;;;;;;4.52;100.00;98595.22;5074197;28;20212;-78
2024/02/06 04:20:30;;;;;;;15.40;6.17;;;;;;;4.57;100.00;98598.53;5074582;28;20210;-79
2024/02/06 04:22:58;;;;;;;13.30;5.97;;;;;;;4.67;100.00;98594.66;5074273;28;20233;-77
2024/02/06 04:25:25;;;;;;;9.37;5.33;;;;;;;4.69;100.00;98587.59;5074671;28;20206;-78
2024/02/06 04:27:51;;;;;;;8.73;5.80;;;;;;;4.68;100.00;98583.28;5074036;28;20213;-78
2024/02/06 04:30:18;;;;;;;12.33;5.33;;;;;;;4.67;100.00;98586.81;5074392;28;20222;-77
2024/02/06 04:32:44;;;;;;;8.63;5.53;;;;;;;4.61;100.00;98576.56;5074719;28;20230;-77
2024/02/06 04:35:13;;;;;;;13.07;5.90;;;;;;;4.63;100.00;98577.34;5075526;28;20210;-77
2024/02/06 04:37:40;;;;;;;11.67;5.70;;;;;;;4.65;100.00;98583.38;5074035;28;20213;-77
2024/02/06 04:40:10;;;;;;;11.13;5.53;;;;;;;4.69;100.00;98589.34;5074185;28;20235;-78
2024/02/06 04:42:36;;;;;;;11.73;5.47;;;;;;;4.62;100.00;98583.50;5075914;28;20229;-78
2024/02/06 04:45:03;;;;;;;10.87;5.57;;;;;;;4.57;100.00;98593.28;5077394;28;20219;-79
2024/02/06 04:47:29;;;;;;;10.43;5.60;;;;;;;4.52;100.00;98587.38;5077589;28;20263;-79
2024/02/06 04:49:59;;;;;;;6.93;4.70;;;;;;;4.52;100.00;98581.31;5077446;28;20219;-79
2024/02/06 04:52:26;;;;;;;9.87;5.27;;;;;;;4.50;100.00;98583.09;5077082;28;20627;-79
2024/02/06 04:54:52;;;;;;;10.43;5.37;;;;;;;4.48;100.00;98574.47;5077592;28;20211;-79
2024/02/06 04:57:21;;;;;;;11.43;5.60;;;;;;;4.61;100.00;98555.63;5076735;28;20206;-79
2024/02/06 04:59:48;;;;;;;10.60;5.30;;;;;;;4.68;100.00;98541.38;5076509;28;20230;-79
2024/02/06 05:02:14;;;;;;;7.63;5.03;;;;;;;4.68;100.00;98535.28;5076969;28;20225;-79
2024/02/06 05:04:41;;;;;;;10.07;5.77;;;;;;;4.72;100.00;98527.28;5077289;28;20215;-79
2024/02/06 05:07:07;;;;;;;8.73;5.80;;;;;;;4.75;100.00;98521.91;5076444;28;20210;-79
2024/02/06 05:09:35;;;;;;;9.10;5.80;;;;;;;4.73;100.00;98528.09;5077275;28;20218;-79
2024/02/06 05:12:01;;;;;;;9.73;5.53;;;;;;;4.73;100.00;98526.34;5076347;28;20227;-79
2024/02/06 05:14:30;;;;;;;8.40;5.37;;;;;;;4.69;100.00;98516.91;5076011;28;20214;-79
2024/02/06 05:16:56;;;;;;;7.67;5.10;;;;;;;4.71;100.00;98509.84;5075181;28;20203;-79
2024/02/06 05:19:23;;;;;;;7.40;5.13;;;;;;;4.74;100.00;98514.97;5075850;28;20227;-79
2024/02/06 05:21:50;;;;;;;12.17;6.00;;;;;;;4.67;100.00;98508.28;5075468;28;20587;-78
2024/02/06 05:24:16;;;;;;;7.93;4.87;;;;;;;4.69;100.00;98506.44;5075711;28;20557;-79
2024/02/06 05:26:43;;;;;;;10.40;5.40;;;;;;;4.71;100.00;98498.53;5076170;28;20214;-79
2024/02/06 05:29:10;;;;;;;8.90;5.33;;;;;;;4.71;100.00;98498.53;5075166;28;20219;-79
2024/02/06 05:31:37;;;;;;;8.20;5.20;;;;;;;4.69;100.00;98501.19;5076134;28;20239;-79
2024/02/06 05:34:04;;;;;;;7.47;4.97;;;;;;;4.70;100.00;98492.44;5075924;28;20221;-79
2024/02/06 05:36:30;;;;;;;7.67;4.50;;;;;;;4.66;100.00;98485.63;5074184;28;20215;-79
2024/02/06 05:38:57;;;;;;;8.23;4.47;;;;;;;4.75;100.00;98489.63;5074967;28;20241;-79
2024/02/06 05:41:23;;;;;;;7.93;4.70;;;;;;;4.79;100.00;98484.22;5076005;28;20237;-79
2024/02/06 05:43:50;;;;;;;7.30;4.63;;;;;;;4.79;100.00;98488.59;5076155;28;20217;-79
2024/02/06 05:46:16;;;;;;;8.60;4.20;;;;;;;4.78;100.00;98494.75;5074927;28;20211;-79
2024/02/06 05:48:44;;;;;;;7.10;4.30;;;;;;;4.86;100.00;98496.13;5074788;28;20257;-79
2024/02/06 05:51:11;;;;;;;7.37;3.90;;;;;;;4.84;100.00;98490.09;5074792;28;20210;-78
2024/02/06 05:53:37;;;;;;;7.17;4.17;;;;;;;4.86;100.00;98488.28;5075077;28;20207;-78
2024/02/06 05:56:05;;;;;;;6.20;4.10;;;;;;;4.89;100.00;98493.38;5074349;28;20265;-78
2024/02/06 05:58:31;;;;;;;6.40;4.05;;;;;;;4.95;100.00;98493.13;5074567;28;20214;-78
2024/02/06 06:00:58;;;;;;;4.90;3.37;;;;;;;4.95;100.00;98487.88;5076001;28;20246;-78
2024/02/06 06:03:24;;;;;;;7.07;3.70;;;;;;;5.00;100.00;98480.69;5075899;28;20211;-78
2024/02/06 06:05:52;;;;;;;5.33;3.43;;;;;;;5.08;100.00;98486.47;5075755;28;20232;-78
2024/02/06 06:08:18;;;;;;;5.07;3.33;;;;;;;5.17;100.00;98483.47;5075254;28;20268;-78
2024/02/06 06:10:45;;;;;;;7.53;3.73;;;;;;;5.15;100.00;98485.31;5074850;28;20203;-78
2024/02/06 06:13:11;;;;;;;6.53;3.93;;;;;;;5.12;100.00;98490.66;5075254;28;20238;-78
2024/02/06 06:15:39;;;;;;;4.67;3.53;;;;;;;5.10;100.00;98491.66;5075059;28;20218;-78
2024/02/06 06:18:06;;;;;;;5.90;3.20;;;;;;;5.13;100.00;98487.13;5075217;28;20253;-78
2024/02/06 06:20:32;;;;;;;5.97;3.80;;;;;;;5.11;100.00;98488.97;5075339;28;20228;-78
2024/02/06 06:23:00;;;;;;;5.67;3.40;;;;;;;5.12;100.00;98500.31;5075336;28;20227;-78
2024/02/06 06:25:27;;;;;;;5.17;3.50;;;;;;;5.11;100.00;98495.97;5074864;28;20210;-80
2024/02/06 06:27:53;;;;;;;7.37;3.83;;;;;;;5.21;100.00;98490.28;5075020;28;20219;-78
2024/02/06 06:30:20;;;;;;;6.97;5.50;;;;;;;5.23;100.00;98477.97;5075400;28;20210;-78
2024/02/06 06:32:47;;;;;;;7.00;3.40;;;;;;;5.28;100.00;98476.00;5075300;28;20251;-78
2024/02/06 06:35:14;;;;;;;5.80;3.27;;;;;;;5.26;100.00;98474.38;5074925;28;20219;-78
2024/02/06 06:37:40;;;;;;;6.27;3.77;;;;;;;5.27;100.00;98474.31;5074531;28;20218;-78
2024/02/06 06:40:10;;;;;;;6.93;3.97;;;;;;;5.33;100.00;98474.06;5074433;28;20352;-79
2024/02/06 06:42:36;;;;;;;5.87;3.50;;;;;;;5.32;100.00;98477.56;5074211;28;20310;-78
2024/02/06 06:45:03;;;;;;;6.43;3.73;;;;;;;5.35;100.00;98482.69;5074721;28;20211;-78
2024/02/06 06:47:30;;;;;;;5.37;3.23;;;;;;;5.33;100.00;98483.66;5075610;28;20215;-78
2024/02/06 06:49:57;;;;;;;6.63;4.20;;;;;;;5.32;100.00;98480.19;5076132;28;20199;-79
2024/02/06 06:52:23;;;;;;;7.90;4.17;;;;;;;5.31;100.00;98486.34;5075570;28;20231;-78
2024/02/06 06:54:50;;;;;;;7.30;4.03;;;;;;;5.33;100.00;98481.91;5074765;28;20321;-78
2024/02/06 06:57:18;;;;;;;6.10;3.53;;;;;;;5.34;100.00;98481.00;5074809;28;20217;-79
2024/02/06 06:59:44;;;;;;;5.33;3.13;;;;;;;5.42;100.00;98483.25;5077611;28;20693;-78
2024/02/06 07:02:10;;;;;;;4.57;3.60;;;;;;;5.39;100.00;98479.03;5079832;28;20235;-78
2024/02/06 07:04:37;;;;;;;6.43;3.50;;;;;;;5.44;100.00;98477.03;5078433;28;20211;-78
2024/02/06 07:07:04;;;;;;;3.93;3.30;;;;;;;5.45;100.00;98475.28;5078828;28;20215;-79
2024/02/06 07:09:31;;;;;;;5.20;3.33;;;;;;;5.50;100.00;98470.69;5074911;28;20200;-78
2024/02/06 07:11:59;;;;;;;6.53;3.97;;;;;;;5.45;100.00;98472.66;5074275;28;20318;-80
2024/02/06 07:14:27;;;;;;;7.33;3.90;;;;;;;5.46;100.00;98479.59;5073859;28;20242;-78
2024/02/06 07:16:53;;;;;;;6.50;3.80;;;;;;;5.48;100.00;98478.63;5075614;28;20207;-77
2024/02/06 07:19:23;;;;;;;7.33;3.63;;;;;;;5.37;100.00;98472.97;5076244;28;20253;-79
2024/02/06 07:21:56;;;;;;;5.97;3.30;;;;;;;5.31;100.00;98470.63;5073775;28;20292;-78
2024/02/06 07:24:24;;;;;;;5.67;3.70;;;;;;;5.42;100.00;98484.13;5077730;28;20203;-80
2024/02/06 07:26:50;;;;;;;6.30;3.50;;;;;;;5.44;100.00;98474.41;5077145;28;20302;-80
2024/02/06 07:29:17;;;;;;;7.93;3.87;;;;;;;5.37;100.00;98491.31;5079208;28;20215;-79
2024/02/06 07:31:45;;;;;;;6.10;3.73;;;;;;;5.39;100.00;98486.91;5076158;28;20277;-77
2024/02/06 07:34:12;;;;;;;7.10;3.70;;;;;;;5.43;100.00;98490.22;5075344;28;20219;-78
2024/02/06 07:36:41;;;;;;;6.60;3.80;;;;;;;5.39;100.00;98494.75;5079181;28;20204;-79
2024/02/06 07:39:08;;;;;;;4.57;3.40;;;;;;;5.42;100.00;98499.84;5074089;28;20204;-77
2024/02/06 07:41:34;;;;;;;4.87;3.60;;;;;;;5.44;100.00;98492.75;5074708;28;20230;-77
2024/02/06 07:44:01;;;;;;;6.20;3.23;;;;;;;5.38;100.00;98493.03;5075462;28;20210;-78
2024/02/06 07:46:28;;;;;;;5.77;3.50;;;;;;;5.37;100.00;98496.56;5077218;28;20207;-79
2024/02/06 07:48:56;;;;;;;6.83;4.00;;;;;;;5.36;100.00;98494.88;5075073;28;20243;-79
2024/02/06 07:51:23;;;;;;;6.47;3.73;;;;;;;5.42;100.00;98505.09;5074724;28;20308;-78
2024/02/06 07:53:50;;;;;;;6.17;3.40;;;;;;;5.40;100.00;98509.56;5074743;28;20215;-78
2024/02/06 07:56:17;;;;;;;6.70;3.90;;;;;;;5.52;100.00;98511.66;5074960;28;20301;-78
2024/02/06 07:58:44;;;;;;;4.87;3.37;;;;;;;5.52;100.00;98506.41;5076586;28;20239;-79
2024/02/06 08:01:11;;;;;;;7.37;3.90;;;;;;;5.56;100.00;98504.50;5076521;28;20237;-78
2024/02/06 08:03:37;;;;;;;4.70;3.20;;;;;;;5.54;100.00;98514.19;5076035;28;20214;-79
2024/02/06 08:06:06;;;;;;;5.63;3.73;;;;;;;5.51;100.00;98504.69;5076474;28;20209;-78
2024/02/06 08:08:33;;;;;;;4.63;3.40;;;;;;;5.51;100.00;98504.69;5076872;28;20208;-78
2024/02/06 08:10:59;;;;;;;7.87;3.97;;;;;;;5.60;100.00;98508.69;5077070;28;20214;-78
2024/02/06 08:13:26;;;;;;;5.90;3.90;;;;;;;5.56;100.00;98513.22;5076948;28;20215;-78
2024/02/06 08:15:52;;;;;;;6.73;3.50;;;;;;;5.55;100.00;98511.50;5077118;28;20238;-78
2024/02/06 08:18:19;;;;;;;6.67;3.87;;;;;;;5.64;100.00;98499.78;5077643;28;20612;-78
2024/02/06 08:20:46;;;;;;;6.20;3.40;;;;;;;5.69;100.00;98514.38;5076658;28;20236;-78
2024/02/06 08:23:13;;;;;;;5.63;3.53;;;;;;;5.69;100.00;98514.38;5076661;28;20223;-79
2024/02/06 08:25:40;;;;;;;4.50;3.23;;;;;;;5.68;100.00;98517.09;5077550;28;20244;-78
2024/02/06 08:28:07;;;;;;;4.77;3.17;;;;;;;5.70;100.00;98505.63;5076468;28;20207;-78
2024/02/06 08:30:33;;;;;;;4.07;2.83;;;;;;;5.77;100.00;98498.31;5076041;28;20682;-78
2024/02/06 08:32:59;;;;;;;6.13;3.10;;;;;;;5.89;100.00;98500.44;5078628;28;20231;-79
2024/02/06 08:35:26;;;;;;;4.50;3.63;;;;;;;5.91;100.00;98494.19;5076847;28;20442;-79
2024/02/06 08:37:53;;;;;;;5.13;3.03;;;;;;;6.01;100.00;98486.75;5077542;28;20451;-79
2024/02/06 08:40:20;;;;;;;4.53;3.10;;;;;;;6.09;100.00;98480.25;5077877;28;20337;-79
2024/02/06 08:42:49;;;;;;;6.43;3.40;;;;;;;6.17;100.00;98472.84;5079171;28;20720;-79
2024/02/06 08:45:15;;;;;;;4.47;3.23;;;;;;;6.26;100.00;98466.31;5077881;28;20207;-79
2024/02/06 08:47:42;;;;;;;5.47;3.27;;;;;;;6.29;100.00;98459.16;5076828;28;20208;-79
2024/02/06 08:50:10;;;;;;;4.70;3.23;;;;;;;6.35;100.00;98464.13;5077240;28;20207;-79
2024/02/06 08:52:36;;;;;;;3.73;2.60;;;;;;;6.41;100.00;98463.84;5076971;28;20585;-79
2024/02/06 08:55:03;;;;;;;4.57;2.73;;;;;;;6.41;100.00;98453.34;5076050;28;20216;-79
2024/02/06 08:57:31;;;;;;;5.53;2.77;;;;;;;6.52;100.00;98445.81;5076482;28;20203;-79
2024/02/06 08:59:57;;;;;;;4.57;2.73;;;;;;;6.50;100.00;98449.41;5079267;28;20230;-79
2024/02/06 09:02:24;;;;;;;5.37;2.80;;;;;;;6.50;100.00;98447.66;5079992;28;20713;-79
2024/02/06 09:04:52;;;;;;;5.10;2.60;;;;;;;6.53;100.00;98447.50;5080930;28;20268;-79
2024/02/06 09:07:19;;;;;;;4.30;2.73;;;;;;;6.58;100.00;98435.00;5078534;28;20211;-80
2024/02/06 09:09:45;;;;;;;3.80;2.70;;;;;;;6.59;100.00;98449.81;5077072;28;20220;-79
2024/02/06 09:12:12;;;;;;;4.23;2.87;;;;;;;6.69;100.00;98432.72;5077840;28;20224;-79
2024/02/06 09:14:39;;;;;;;4.60;2.83;;;;;;;6.75;100.00;98434.19;5080022;28;20696;-79
2024/02/06 09:17:06;;;;;;;5.87;2.90;;;;;;;6.79;100.00;98433.09;5080274;28;20291;-79
2024/02/06 09:19:32;;;;;;;5.03;2.50;;;;;;;6.87;100.00;98431.81;5079728;28;20203;-79
2024/02/06 09:21:59;;;;;;;4.13;2.50;;;;;;;7.01;100.00;98423.25;5079226;28;20246;-79
2024/02/06 09:24:25;;;;;;;3.00;2.33;;;;;;;7.13;100.00;98415.56;5080101;28;20209;-79
2024/02/06 09:26:54;;;;;;;3.57;2.77;;;;;;;7.16;100.00;98412.81;5078493;28;20207;-79
2024/02/06 09:29:22;;;;;;;5.70;2.63;;;;;;;7.20;100.00;98402.97;5079294;28;20217;-78
2024/02/06 09:31:50;;;;;;;4.93;2.40;;;;;;;7.24;100.00;98408.00;5079604;28;20228;-79
2024/02/06 09:34:16;;;;;;;6.67;2.50;;;;;;;7.36;99.82;98409.97;5080196;28;20209;-78
2024/02/06 09:36:43;;;;;;;3.93;2.70;;;;;;;7.38;100.00;98408.13;5078014;28;20218;-79
2024/02/06 09:39:10;;;;;;;4.30;2.40;;;;;;;7.45;99.40;98401.59;5078231;28;20205;-79
2024/02/06 09:41:38;;;;;;;3.33;2.27;;;;;;;7.46;98.15;98384.88;5077279;28;20269;-78
2024/02/06 09:44:06;;;;;;;4.23;2.37;;;;;;;7.50;97.65;98391.69;5077548;28;20209;-78
2024/02/06 09:46:33;;;;;;;2.67;1.90;;;;;;;7.51;98.10;98388.13;5078254;28;20208;-78
2024/02/06 09:49:01;;;;;;;3.83;2.17;;;;;;;7.59;97.96;98391.22;5077692;28;20207;-79
2024/02/06 09:51:32;;;;;;;4.27;2.27;;;;;;;7.61;96.71;98384.09;5077133;28;20219;-78
2024/02/06 09:54:00;;;;;;;5.43;1.70;;;;;;;7.67;96.04;98384.63;5079009;28;20209;-79
2024/02/06 09:56:27;;;;;;;3.97;1.90;;;;;;;7.75;95.85;98392.09;5078359;28;20222;-78
2024/02/06 09:58:57;;;;;;;3.07;1.83;;;;;;;7.76;95.19;98384.13;5077880;28;20251;-78
2024/02/06 10:01:25;;;;;;;3.50;1.60;;;;;;;7.80;95.88;98384.81;5077973;28;20236;-78
2024/02/06 10:03:54;;;;;;;2.63;1.80;;;;;;;7.86;95.80;98389.72;5077021;28;20207;-78
2024/02/06 10:06:23;;;;;;;3.07;1.80;;;;;;;7.89;95.08;98394.84;5075706;28;20733;-78
2024/02/06 10:08:50;;;;;;;2.73;1.90;;;;;;;7.86;94.33;98398.50;5075968;28;20744;-78
2024/02/06 10:11:18;;;;;;;3.07;1.97;;;;;;;7.94;94.85;98398.03;5076299;28;20637;-79
2024/02/06 10:13:46;;;;;;;2.53;1.63;;;;;;;7.96;93.81;98397.03;5076931;28;20258;-79
2024/02/06 10:16:12;;;;;;;2.80;2.10;;;;;;;7.96;93.94;98402.28;5077272;28;20205;-79
2024/02/06 10:18:51;;;;;;;4.87;2.23;;;;;;;7.97;94.09;98400.53;5068796;28;20670;-78
2024/02/06 10:21:17;;;;;;;2.47;1.77;;;;;;;8.06;93.39;98410.53;5055452;28;20233;-79
2024/02/06 10:23:46;;;;;;;3.63;1.87;;;;;;;8.13;93.72;98411.91;5055389;28;20214;-78
2024/02/06 10:26:18;;;;;;;2.60;1.40;;;;;;;8.14;93.37;98411.81;5057273;28;20213;-78
2024/02/06 10:28:45;;;;;;;2.70;1.87;;;;;;;8.19;93.47;98407.19;5055650;28;20627;-79
2024/02/06 10:31:12;;;;;;;3.17;1.73;;;;;;;8.22;92.69;98393.88;5057224;28;20201;-79
2024/02/06 10:33:39;;;;;;;2.20;1.40;;;;;;;8.27;93.45;98390.97;5056892;28;20205;-79
2024/02/06 10:36:07;;;;;;;3.80;1.90;;;;;;;8.25;93.28;98395.47;5058797;28;20271;-79
2024/02/06 10:38:33;;;;;;;2.70;1.63;;;;;;;8.33;93.48;98393.25;5057710;28;20233;-78
2024/02/06 10:41:08;;;;;;;3.30;1.80;;;;;;;8.33;93.42;98398.53;5059829;28;20237;-78
2024/02/06 10:43:35;;;;;;;1.50;1.33;;;;;;;8.33;93.70;98402.00;5057934;28;20220;-78
2024/02/06 10:46:02;;;;;;;2.73;1.40;;;;;;;8.38;93.43;98397.31;5057484;28;20209;-77
2024/02/06 10:48:32;;;;;;;2.60;1.43;;;;;;;8.41;93.33;98398.94;5052212;28;20211;-77
2024/02/06 10:51:00;;;;;;;3.77;1.40;;;;;;;8.44;93.71;98398.78;5052874;28;20761;-77
2024/02/06 10:53:26;;;;;;;1.53;1.20;;;;;;;8.53;93.75;98390.34;5051548;28;20219;-77
2024/02/06 10:56:05;;;;;;;3.53;1.60;;;;;;;8.61;92.79;98381.06;5051219;28;20240;-77
2024/02/06 10:58:37;;;;;;;1.40;1.20;;;;;;;8.74;91.22;98370.66;5054150;28;20470;-78
2024/02/06 11:01:06;;;;;;;2.37;1.07;;;;;;;8.82;89.59;98360.53;5056995;28;20241;-78
2024/02/06 11:03:39;;;;;;;1.97;1.00;;;;;;;8.84;88.61;98348.09;5056259;28;20233;-77
2024/02/06 11:06:16;;;;;;;1.70;1.30;;;;;;;8.90;89.10;98351.25;5055456;28;20215;-78
2024/02/06 11:08:46;;;;;;;1.37;0.80;;;;;;;8.97;89.65;98347.31;5058087;28;20233;-78
2024/02/06 11:11:14;;;;;;;1.77;1.00;;;;;;;8.99;89.30;98347.22;5060161;28;20618;-79
2024/02/06 11:13:46;;;;;;;1.50;0.80;;;;;;;9.02;88.90;98339.13;5057581;28;20591;-78
2024/02/06 11:16:16;;;;;;;1.37;1.03;;;;;;;9.04;88.97;98337.22;5056993;28;20701;-78
2024/02/06 11:18:48;;;;;;;2.77;1.10;;;;;;;9.10;89.71;98345.63;5057346;28;20217;-78
2024/02/06 11:21:18;;;;;;;2.30;1.00;;;;;;;9.20;87.76;98332.75;5058577;28;20651;-79
2024/02/06 11:23:45;;;;;;;1.67;1.17;;;;;;;9.23;87.72;98333.41;5059443;28;20430;-80
2024/02/06 11:26:13;;;;;;;1.20;0.90;;;;;;;9.24;87.61;98334.25;5058793;28;20218;-79
2024/02/06 11:28:40;;;;;;;1.97;1.03;;;;;;;9.33;87.90;98336.31;5058165;28;20219;-79
2024/02/06 11:31:08;;;;;;;1.40;1.13;;;;;;;9.29;87.21;98322.47;5061160;28;20206;-79